Terza, Mississippi
Current Conditions -  °F | °C
As of 3:35 AM on Thursday 18 Dec 2014 (Local Time) from KUOX Reporting Station
Scattered Clouds Scattered Clouds  
Wind Chill: 33°   Ceiling: Unl
Heat Index: 37°   Visibility: 9mi
Dew Point: 32°   Wind: 6mph
Humidity: 81%   Direction: 60°ENE
Pressure: 30.24"   Gusts: NA
Location:  34.345°N, 89.8815°W
Report Text: KUOX 180935Z AUTO 06005KT 9SM FEW047 FEW060 SCT070 03/00 A3024 RMK AO2 PWINO PNO
Loading
Personal Weather Stations






























Interactive Weather Map New forecast layout! Learn more

10-Day Weather Forecast

Advertisements
Track Severe Weather on mobile